sensor_id;sensor_type;location;lat;lon;timestamp;pressure;altitude;pressure_sealevel;temperature;humidity
50105;BME280;47690;39.202;-77.198;2022-12-07T00:01:57;100731.56;;;40.00;11.75
50105;BME280;47690;39.202;-77.198;2022-12-07T00:04:27;100732.59;;;39.99;11.63
50105;BME280;47690;39.202;-77.198;2022-12-07T00:06:56;100744.22;;;39.99;11.46
50105;BME280;47690;39.202;-77.198;2022-12-07T00:09:25;100740.69;;;39.99;11.45
50105;BME280;47690;39.202;-77.198;2022-12-07T00:11:57;100737.38;;;40.10;11.63
50105;BME280;47690;39.202;-77.198;2022-12-07T00:14:27;100750.25;;;40.15;11.44
50105;BME280;47690;39.202;-77.198;2022-12-07T00:16:57;100749.19;;;40.23;11.67
50105;BME280;47690;39.202;-77.198;2022-12-07T00:19:27;100749.63;;;40.06;11.73
50105;BME280;47690;39.202;-77.198;2022-12-07T00:21:56;100738.41;;;40.02;11.66
50105;BME280;47690;39.202;-77.198;2022-12-07T00:24:26;100744.41;;;40.05;11.67
50105;BME280;47690;39.202;-77.198;2022-12-07T00:26:56;100746.91;;;40.06;11.53
50105;BME280;47690;39.202;-77.198;2022-12-07T00:29:25;100753.56;;;39.97;11.77
50105;BME280;47690;39.202;-77.198;2022-12-07T00:31:58;100752.75;;;40.03;11.82
50105;BME280;47690;39.202;-77.198;2022-12-07T00:34:28;100754.78;;;40.01;11.32
50105;BME280;47690;39.202;-77.198;2022-12-07T00:36:58;100760.00;;;39.96;11.94
50105;BME280;47690;39.202;-77.198;2022-12-07T00:39:29;100750.03;;;39.90;11.82
50105;BME280;47690;39.202;-77.198;2022-12-07T00:41:59;100758.91;;;39.77;11.78
50105;BME280;47690;39.202;-77.198;2022-12-07T00:44:28;100748.94;;;39.77;11.93
50105;BME280;47690;39.202;-77.198;2022-12-07T00:46:57;100746.66;;;39.60;12.16
50105;BME280;47690;39.202;-77.198;2022-12-07T00:49:27;100729.03;;;39.65;12.04
50105;BME280;47690;39.202;-77.198;2022-12-07T00:51:57;100715.16;;;39.68;12.03
50105;BME280;47690;39.202;-77.198;2022-12-07T00:54:27;100701.47;;;39.76;11.71
50105;BME280;47690;39.202;-77.198;2022-12-07T00:56:56;100706.03;;;39.82;11.69
50105;BME280;47690;39.202;-77.198;2022-12-07T00:59:27;100712.44;;;39.88;12.01
50105;BME280;47690;39.202;-77.198;2022-12-07T01:01:57;100711.00;;;39.79;11.77
50105;BME280;47690;39.202;-77.198;2022-12-07T01:04:28;100688.81;;;39.90;12.09
50105;BME280;47690;39.202;-77.198;2022-12-07T01:06:57;100690.09;;;39.94;11.56
50105;BME280;47690;39.202;-77.198;2022-12-07T01:09:28;100682.63;;;39.90;11.94
50105;BME280;47690;39.202;-77.198;2022-12-07T01:11:57;100697.34;;;39.04;12.25
50105;BME280;47690;39.202;-77.198;2022-12-07T01:14:27;100699.59;;;39.70;11.90
50105;BME280;47690;39.202;-77.198;2022-12-07T01:16:57;100702.97;;;39.92;11.78
50105;BME280;47690;39.202;-77.198;2022-12-07T01:19:27;100706.69;;;39.98;11.76
50105;BME280;47690;39.202;-77.198;2022-12-07T01:21:57;100717.91;;;39.95;11.61
50105;BME280;47690;39.202;-77.198;2022-12-07T01:24:27;100708.94;;;39.74;12.22
50105;BME280;47690;39.202;-77.198;2022-12-07T01:26:56;100708.75;;;39.89;11.50
50105;BME280;47690;39.202;-77.198;2022-12-07T01:29:26;100716.63;;;39.91;11.94
50105;BME280;47690;39.202;-77.198;2022-12-07T01:31:57;100709.16;;;39.93;12.09
50105;BME280;47690;39.202;-77.198;2022-12-07T01:34:27;100712.69;;;39.93;11.94
50105;BME280;47690;39.202;-77.198;2022-12-07T01:36:57;100711.22;;;39.97;11.55
50105;BME280;47690;39.202;-77.198;2022-12-07T01:39:29;100702.72;;;39.94;12.08
50105;BME280;47690;39.202;-77.198;2022-12-07T01:41:58;100702.50;;;39.88;11.58
50105;BME280;47690;39.202;-77.198;2022-12-07T01:44:31;100711.00;;;39.85;11.92
50105;BME280;47690;39.202;-77.198;2022-12-07T01:47:04;100702.69;;;39.73;12.03
50105;BME280;47690;39.202;-77.198;2022-12-07T01:49:38;100707.13;;;39.19;12.44
50105;BME280;47690;39.202;-77.198;2022-12-07T01:52:26;100702.88;;;38.89;12.78
50105;BME280;47690;39.202;-77.198;2022-12-07T01:55:00;100707.72;;;39.07;12.32
50105;BME280;47690;39.202;-77.198;2022-12-07T01:57:31;100704.47;;;38.77;12.67
50105;BME280;47690;39.202;-77.198;2022-12-07T02:00:05;100706.66;;;40.11;11.80
50105;BME280;47690;39.202;-77.198;2022-12-07T02:02:48;100717.72;;;39.27;12.46
50105;BME280;47690;39.202;-77.198;2022-12-07T02:05:27;100715.56;;;39.02;12.29
50105;BME280;47690;39.202;-77.198;2022-12-07T02:07:57;100720.88;;;38.89;12.55
50105;BME280;47690;39.202;-77.198;2022-12-07T02:10:30;100721.53;;;38.91;12.74
50105;BME280;47690;39.202;-77.198;2022-12-07T02:13:48;100714.34;;;39.12;12.56
50105;BME280;47690;39.202;-77.198;2022-12-07T02:31:01;100733.03;;;39.13;12.49
50105;BME280;47690;39.202;-77.198;2022-12-07T02:33:46;100725.16;;;39.18;12.50
50105;BME280;47690;39.202;-77.198;2022-12-07T02:36:24;100720.34;;;40.43;11.56
50105;BME280;47690;39.202;-77.198;2022-12-07T02:39:03;100730.25;;;39.55;12.15
50105;BME280;47690;39.202;-77.198;2022-12-07T02:41:58;100719.69;;;39.54;12.27
50105;BME280;47690;39.202;-77.198;2022-12-07T02:44:32;100732.03;;;39.34;12.35
50105;BME280;47690;39.202;-77.198;2022-12-07T02:47:08;100730.38;;;39.20;12.82
50105;BME280;47690;39.202;-77.198;2022-12-07T02:49:39;100722.00;;;40.51;11.72
50105;BME280;47690;39.202;-77.198;2022-12-07T02:52:08;100717.00;;;39.60;12.08
50105;BME280;47690;39.202;-77.198;2022-12-07T02:54:37;100731.59;;;39.24;12.22
50105;BME280;47690;39.202;-77.198;2022-12-07T03:00:13;100710.72;;;39.33;12.28
50105;BME280;47690;39.202;-77.198;2022-12-07T03:03:20;100715.31;;;39.53;12.69
50105;BME280;47690;39.202;-77.198;2022-12-07T03:08:51;100721.88;;;39.23;12.67
50105;BME280;47690;39.202;-77.198;2022-12-07T03:11:31;100710.03;;;39.17;12.54
50105;BME280;47690;39.202;-77.198;2022-12-07T03:14:15;100700.13;;;39.25;12.63
50105;BME280;47690;39.202;-77.198;2022-12-07T03:16:53;100707.16;;;39.26;12.42
50105;BME280;47690;39.202;-77.198;2022-12-07T03:19:30;100703.63;;;39.25;12.62
50105;BME280;47690;39.202;-77.198;2022-12-07T03:22:05;100712.31;;;39.20;12.41
50105;BME280;47690;39.202;-77.198;2022-12-07T03:24:57;100706.63;;;39.44;12.40
50105;BME280;47690;39.202;-77.198;2022-12-07T03:27:34;100694.75;;;39.38;12.34
50105;BME280;47690;39.202;-77.198;2022-12-07T03:30:08;100700.34;;;39.43;12.66
50105;BME280;47690;39.202;-77.198;2022-12-07T03:32:44;100705.75;;;39.37;12.68
50105;BME280;47690;39.202;-77.198;2022-12-07T03:41:01;100689.81;;;39.55;12.52
50105;BME280;47690;39.202;-77.198;2022-12-07T03:43:35;100689.84;;;39.48;12.43
50105;BME280;47690;39.202;-77.198;2022-12-07T03:48:57;100682.94;;;39.32;12.65
50105;BME280;47690;39.202;-77.198;2022-12-07T03:51:42;100683.78;;;39.33;12.54
50105;BME280;47690;39.202;-77.198;2022-12-07T03:54:26;100686.53;;;39.94;12.25
50105;BME280;47690;39.202;-77.198;2022-12-07T03:57:01;100687.50;;;39.39;12.33
50105;BME280;47690;39.202;-77.198;2022-12-07T03:59:36;100690.59;;;39.29;12.65
50105;BME280;47690;39.202;-77.198;2022-12-07T04:02:07;100696.78;;;39.23;12.72
50105;BME280;47690;39.202;-77.198;2022-12-07T04:04:39;100693.28;;;39.22;12.60
50105;BME280;47690;39.202;-77.198;2022-12-07T04:07:09;100709.44;;;39.22;12.54
50105;BME280;47690;39.202;-77.198;2022-12-07T04:09:39;100715.53;;;39.51;12.52
50105;BME280;47690;39.202;-77.198;2022-12-07T04:12:09;100705.63;;;39.72;12.48
50105;BME280;47690;39.202;-77.198;2022-12-07T04:14:37;100699.00;;;40.15;12.05
50105;BME280;47690;39.202;-77.198;2022-12-07T04:17:08;100706.44;;;40.26;11.82
50105;BME280;47690;39.202;-77.198;2022-12-07T04:19:38;100700.66;;;39.96;12.31
50105;BME280;47690;39.202;-77.198;2022-12-07T04:22:08;100693.81;;;39.93;12.33
50105;BME280;47690;39.202;-77.198;2022-12-07T04:24:39;100706.44;;;40.26;12.14
50105;BME280;47690;39.202;-77.198;2022-12-07T04:27:08;100711.72;;;40.74;11.92
50105;BME280;47690;39.202;-77.198;2022-12-07T04:29:37;100702.31;;;39.90;12.45
50105;BME280;47690;39.202;-77.198;2022-12-07T04:32:07;100694.41;;;39.88;12.41
50105;BME280;47690;39.202;-77.198;2022-12-07T04:34:37;100690.88;;;40.22;11.82
50105;BME280;47690;39.202;-77.198;2022-12-07T04:37:05;100684.25;;;40.18;12.16
50105;BME280;47690;39.202;-77.198;2022-12-07T04:39:37;100685.72;;;39.93;12.40
50105;BME280;47690;39.202;-77.198;2022-12-07T04:42:07;100677.22;;;39.96;12.37
50105;BME280;47690;39.202;-77.198;2022-12-07T04:44:38;100668.28;;;40.02;12.12
50105;BME280;47690;39.202;-77.198;2022-12-07T04:47:07;100674.53;;;39.90;12.34
50105;BME280;47690;39.202;-77.198;2022-12-07T04:49:36;100678.88;;;40.04;12.41
50105;BME280;47690;39.202;-77.198;2022-12-07T04:52:05;100668.91;;;40.05;11.98
50105;BME280;47690;39.202;-77.198;2022-12-07T04:54:35;100669.78;;;39.98;12.45
50105;BME280;47690;39.202;-77.198;2022-12-07T04:57:04;100667.25;;;40.10;12.22
50105;BME280;47690;39.202;-77.198;2022-12-07T04:59:34;100680.31;;;40.00;12.29
50105;BME280;47690;39.202;-77.198;2022-12-07T05:02:10;100670.78;;;39.97;12.33
50105;BME280;47690;39.202;-77.198;2022-12-07T05:04:39;100670.94;;;40.23;12.57
50105;BME280;47690;39.202;-77.198;2022-12-07T05:07:08;100681.56;;;40.04;12.43
50105;BME280;47690;39.202;-77.198;2022-12-07T05:09:37;100673.06;;;39.94;12.37
50105;BME280;47690;39.202;-77.198;2022-12-07T05:12:07;100677.81;;;40.19;12.00
50105;BME280;47690;39.202;-77.198;2022-12-07T05:14:37;100683.19;;;39.78;12.51
50105;BME280;47690;39.202;-77.198;2022-12-07T05:17:08;100671.38;;;39.72;12.73
50105;BME280;47690;39.202;-77.198;2022-12-07T05:19:37;100683.63;;;39.68;12.81
50105;BME280;47690;39.202;-77.198;2022-12-07T05:22:07;100681.16;;;39.67;12.62
50105;BME280;47690;39.202;-77.198;2022-12-07T05:24:35;100680.94;;;39.75;12.17
50105;BME280;47690;39.202;-77.198;2022-12-07T05:27:05;100684.88;;;39.79;12.84
50105;BME280;47690;39.202;-77.198;2022-12-07T05:29:36;100686.53;;;39.80;12.80
50105;BME280;47690;39.202;-77.198;2022-12-07T05:32:05;100684.66;;;39.74;12.74
50105;BME280;47690;39.202;-77.198;2022-12-07T05:34:35;100689.84;;;39.69;12.54
50105;BME280;47690;39.202;-77.198;2022-12-07T05:37:04;100688.41;;;39.86;12.29
50105;BME280;47690;39.202;-77.198;2022-12-07T05:39:33;100696.28;;;39.68;12.69
50105;BME280;47690;39.202;-77.198;2022-12-07T05:42:04;100701.66;;;39.74;12.74
50105;BME280;47690;39.202;-77.198;2022-12-07T05:44:45;100702.09;;;39.85;12.64
50105;BME280;47690;39.202;-77.198;2022-12-07T05:47:16;100694.72;;;40.66;11.91
50105;BME280;47690;39.202;-77.198;2022-12-07T05:49:47;100692.56;;;40.09;12.69
50105;BME280;47690;39.202;-77.198;2022-12-07T05:52:17;100682.59;;;39.96;12.50
50105;BME280;47690;39.202;-77.198;2022-12-07T05:54:50;100681.38;;;39.99;12.68
50105;BME280;47690;39.202;-77.198;2022-12-07T05:57:20;100683.25;;;39.92;12.46
50105;BME280;47690;39.202;-77.198;2022-12-07T05:59:49;100688.22;;;39.95;12.25
50105;BME280;47690;39.202;-77.198;2022-12-07T06:02:19;100685.91;;;39.85;12.59
50105;BME280;47690;39.202;-77.198;2022-12-07T06:04:48;100695.47;;;40.01;12.77
50105;BME280;47690;39.202;-77.198;2022-12-07T06:07:17;100701.88;;;39.80;12.52
50105;BME280;47690;39.202;-77.198;2022-12-07T06:09:47;100696.06;;;39.76;12.86
50105;BME280;47690;39.202;-77.198;2022-12-07T06:12:16;100682.19;;;39.79;12.63
50105;BME280;47690;39.202;-77.198;2022-12-07T06:15:05;100683.25;;;39.92;12.52
50105;BME280;47690;39.202;-77.198;2022-12-07T06:17:36;100694.88;;;39.92;12.68
50105;BME280;47690;39.202;-77.198;2022-12-07T06:20:05;100696.72;;;39.92;12.59
50105;BME280;47690;39.202;-77.198;2022-12-07T06:22:35;100697.97;;;39.96;12.42
50105;BME280;47690;39.202;-77.198;2022-12-07T06:25:05;100693.81;;;39.93;12.71
50105;BME280;47690;39.202;-77.198;2022-12-07T06:27:35;100683.25;;;39.98;12.55
50105;BME280;47690;39.202;-77.198;2022-12-07T06:30:05;100686.78;;;40.06;12.32
50105;BME280;47690;39.202;-77.198;2022-12-07T06:32:37;100692.97;;;40.13;12.31
50105;BME280;47690;39.202;-77.198;2022-12-07T06:35:06;100702.94;;;40.12;12.19
50105;BME280;47690;39.202;-77.198;2022-12-07T06:37:35;100699.63;;;40.10;12.35
50105;BME280;47690;39.202;-77.198;2022-12-07T06:40:06;100706.88;;;40.17;12.24
50105;BME280;47690;39.202;-77.198;2022-12-07T06:42:35;100699.38;;;40.25;12.26
50105;BME280;47690;39.202;-77.198;2022-12-07T06:45:05;100703.53;;;40.28;12.22
50105;BME280;47690;39.202;-77.198;2022-12-07T06:47:36;100701.03;;;40.33;12.22
50105;BME280;47690;39.202;-77.198;2022-12-07T06:50:09;100709.94;;;40.34;12.38
50105;BME280;47690;39.202;-77.198;2022-12-07T06:52:39;100701.38;;;40.64;12.15
50105;BME280;47690;39.202;-77.198;2022-12-07T06:55:12;100686.50;;;41.07;11.74
50105;BME280;47690;39.202;-77.198;2022-12-07T06:57:56;100698.22;;;40.74;12.13
50105;BME280;47690;39.202;-77.198;2022-12-07T07:00:31;100696.78;;;40.78;12.31
50105;BME280;47690;39.202;-77.198;2022-12-07T07:03:00;100702.91;;;40.53;12.18
50105;BME280;47690;39.202;-77.198;2022-12-07T07:05:34;100699.31;;;40.66;12.16
50105;BME280;47690;39.202;-77.198;2022-12-07T07:08:08;100710.06;;;40.86;12.31
50105;BME280;47690;39.202;-77.198;2022-12-07T07:10:53;100713.38;;;40.75;12.22
50105;BME280;47690;39.202;-77.198;2022-12-07T07:13:23;100707.41;;;40.59;11.81
50105;BME280;47690;39.202;-77.198;2022-12-07T07:15:57;100709.41;;;40.91;12.02
50105;BME280;47690;39.202;-77.198;2022-12-07T07:18:27;100694.88;;;40.92;11.84
50105;BME280;47690;39.202;-77.198;2022-12-07T07:20:56;100681.81;;;40.82;11.82
50105;BME280;47690;39.202;-77.198;2022-12-07T07:23:27;100688.06;;;40.82;11.88
50105;BME280;47690;39.202;-77.198;2022-12-07T07:25:56;100684.13;;;40.72;11.97
50105;BME280;47690;39.202;-77.198;2022-12-07T07:28:26;100686.22;;;40.69;12.40
50105;BME280;47690;39.202;-77.198;2022-12-07T07:30:56;100687.88;;;40.70;12.48
50105;BME280;47690;39.202;-77.198;2022-12-07T07:33:26;100691.28;;;40.39;12.12
50105;BME280;47690;39.202;-77.198;2022-12-07T07:35:55;100708.31;;;40.12;12.49
50105;BME280;47690;39.202;-77.198;2022-12-07T07:38:25;100701.06;;;40.06;12.41
50105;BME280;47690;39.202;-77.198;2022-12-07T07:40:56;100710.56;;;40.29;12.50
50105;BME280;47690;39.202;-77.198;2022-12-07T07:43:28;100707.69;;;40.24;12.78
50105;BME280;47690;39.202;-77.198;2022-12-07T07:46:03;100704.13;;;40.30;12.33
50105;BME280;47690;39.202;-77.198;2022-12-07T07:48:32;100690.47;;;40.25;12.52
50105;BME280;47690;39.202;-77.198;2022-12-07T07:51:06;100690.25;;;40.26;12.20
50105;BME280;47690;39.202;-77.198;2022-12-07T07:53:35;100683.19;;;40.32;12.34
50105;BME280;47690;39.202;-77.198;2022-12-07T07:56:05;100693.78;;;40.40;12.07
50105;BME280;47690;39.202;-77.198;2022-12-07T07:58:35;100692.88;;;40.60;12.55
50105;BME280;47690;39.202;-77.198;2022-12-07T08:01:06;100684.09;;;40.85;12.02
50105;BME280;47690;39.202;-77.198;2022-12-07T08:03:35;100676.69;;;40.60;12.40
50105;BME280;47690;39.202;-77.198;2022-12-07T08:06:05;100661.09;;;40.69;12.22
50105;BME280;47690;39.202;-77.198;2022-12-07T08:08:33;100666.28;;;40.64;12.00
50105;BME280;47690;39.202;-77.198;2022-12-07T08:11:08;100655.09;;;40.67;12.06
50105;BME280;47690;39.202;-77.198;2022-12-07T08:13:37;100642.97;;;40.76;12.10
50105;BME280;47690;39.202;-77.198;2022-12-07T08:16:09;100651.72;;;40.72;12.17
50105;BME280;47690;39.202;-77.198;2022-12-07T08:18:40;100654.03;;;40.68;11.98
50105;BME280;47690;39.202;-77.198;2022-12-07T08:21:12;100660.44;;;40.74;12.09
50105;BME280;47690;39.202;-77.198;2022-12-07T08:23:42;100667.09;;;40.71;11.90
50105;BME280;47690;39.202;-77.198;2022-12-07T08:26:14;100667.94;;;40.72;11.95
50105;BME280;47690;39.202;-77.198;2022-12-07T08:28:43;100651.06;;;41.22;11.54
50105;BME280;47690;39.202;-77.198;2022-12-07T08:31:16;100656.28;;;41.81;11.53
50105;BME280;47690;39.202;-77.198;2022-12-07T08:33:47;100650.81;;;42.07;11.08
50105;BME280;47690;39.202;-77.198;2022-12-07T08:36:17;100639.91;;;41.76;11.63
50105;BME280;47690;39.202;-77.198;2022-12-07T08:38:46;100637.38;;;41.23;11.60
50105;BME280;47690;39.202;-77.198;2022-12-07T08:41:35;100637.59;;;41.15;12.05
50105;BME280;47690;39.202;-77.198;2022-12-07T08:44:04;100626.00;;;41.91;11.37
50105;BME280;47690;39.202;-77.198;2022-12-07T08:46:35;100618.50;;;41.93;11.43
50105;BME280;47690;39.202;-77.198;2022-12-07T08:49:12;100619.91;;;42.21;11.34
50105;BME280;47690;39.202;-77.198;2022-12-07T08:51:43;100623.22;;;42.23;11.36
50105;BME280;47690;39.202;-77.198;2022-12-07T08:54:15;100622.47;;;42.16;11.28
50105;BME280;47690;39.202;-77.198;2022-12-07T08:56:46;100622.00;;;42.19;11.03
50105;BME280;47690;39.202;-77.198;2022-12-07T08:59:23;100638.03;;;42.89;10.69
50105;BME280;47690;39.202;-77.198;2022-12-07T09:01:53;100627.50;;;42.31;10.98
50105;BME280;47690;39.202;-77.198;2022-12-07T09:04:22;100635.41;;;43.67;9.98
50105;BME280;47690;39.202;-77.198;2022-12-07T09:06:53;100632.59;;;42.89;10.77
50105;BME280;47690;39.202;-77.198;2022-12-07T09:09:24;100628.25;;;42.57;10.62
50105;BME280;47690;39.202;-77.198;2022-12-07T09:11:56;100627.28;;;43.91;9.83
50105;BME280;47690;39.202;-77.198;2022-12-07T09:14:26;100638.06;;;41.95;11.18
50105;BME280;47690;39.202;-77.198;2022-12-07T09:17:08;100637.16;;;42.01;11.41
50105;BME280;47690;39.202;-77.198;2022-12-07T09:19:38;100638.28;;;41.94;10.86
50105;BME280;47690;39.202;-77.198;2022-12-07T09:22:07;100634.69;;;41.49;11.47
50105;BME280;47690;39.202;-77.198;2022-12-07T09:24:36;100643.69;;;40.65;12.21
50105;BME280;47690;39.202;-77.198;2022-12-07T09:27:05;100636.72;;;40.37;12.28
50105;BME280;47690;39.202;-77.198;2022-12-07T09:29:33;100650.63;;;40.27;12.38
50105;BME280;47690;39.202;-77.198;2022-12-07T09:32:03;100646.06;;;40.34;12.53
50105;BME280;47690;39.202;-77.198;2022-12-07T09:34:38;100638.97;;;40.47;12.66
50105;BME280;47690;39.202;-77.198;2022-12-07T09:37:11;100627.78;;;40.43;12.58
50105;BME280;47690;39.202;-77.198;2022-12-07T09:39:40;100627.16;;;41.26;11.92
50105;BME280;47690;39.202;-77.198;2022-12-07T09:42:34;100618.94;;;41.71;11.85
50105;BME280;47690;39.202;-77.198;2022-12-07T09:45:13;100623.09;;;41.42;11.68
50105;BME280;47690;39.202;-77.198;2022-12-07T09:47:44;100600.69;;;40.56;12.17
50105;BME280;47690;39.202;-77.198;2022-12-07T09:50:17;100590.59;;;40.45;12.75
50105;BME280;47690;39.202;-77.198;2022-12-07T09:52:47;100594.75;;;40.41;12.31
50105;BME280;47690;39.202;-77.198;2022-12-07T09:55:27;100583.09;;;40.47;12.20
50105;BME280;47690;39.202;-77.198;2022-12-07T09:57:58;100592.50;;;40.31;12.65
50105;BME280;47690;39.202;-77.198;2022-12-07T10:00:29;100618.03;;;40.22;12.86
50105;BME280;47690;39.202;-77.198;2022-12-07T10:03:00;100613.69;;;40.34;12.38
50105;BME280;47690;39.202;-77.198;2022-12-07T10:05:43;100618.63;;;40.44;12.81
50105;BME280;47690;39.202;-77.198;2022-12-07T10:08:14;100605.59;;;40.34;12.20
50105;BME280;47690;39.202;-77.198;2022-12-07T10:10:53;100613.88;;;40.39;12.53
50105;BME280;47690;39.202;-77.198;2022-12-07T10:16:41;100635.91;;;40.82;12.26
50105;BME280;47690;39.202;-77.198;2022-12-07T10:19:22;100644.28;;;40.60;12.49
50105;BME280;47690;39.202;-77.198;2022-12-07T10:24:39;100627.31;;;40.53;12.16
50105;BME280;47690;39.202;-77.198;2022-12-07T10:27:31;100637.09;;;41.32;11.74
50105;BME280;47690;39.202;-77.198;2022-12-07T10:30:07;100657.97;;;41.50;11.58
50105;BME280;47690;39.202;-77.198;2022-12-07T10:32:37;100656.47;;;41.29;11.57
50105;BME280;47690;39.202;-77.198;2022-12-07T10:35:22;100644.69;;;40.64;12.34
50105;BME280;47690;39.202;-77.198;2022-12-07T10:37:56;100645.13;;;40.61;12.69
50105;BME280;47690;39.202;-77.198;2022-12-07T10:40:33;100635.28;;;40.21;13.00
50105;BME280;47690;39.202;-77.198;2022-12-07T10:43:06;100637.78;;;40.09;12.86
50105;BME280;47690;39.202;-77.198;2022-12-07T10:46:13;100631.72;;;40.40;12.92
50105;BME280;47690;39.202;-77.198;2022-12-07T10:49:06;100622.78;;;40.47;12.46
50105;BME280;47690;39.202;-77.198;2022-12-07T10:52:19;100635.19;;;40.61;12.53
50105;BME280;47690;39.202;-77.198;2022-12-07T11:06:51;100685.88;;;40.52;12.10
50105;BME280;47690;39.202;-77.198;2022-12-07T11:18:21;100676.34;;;40.23;12.66
50105;BME280;47690;39.202;-77.198;2022-12-07T11:24:05;100701.25;;;40.25;12.79
50105;BME280;47690;39.202;-77.198;2022-12-07T11:37:49;100685.00;;;40.59;12.30
50105;BME280;47690;39.202;-77.198;2022-12-07T11:40:31;100687.75;;;40.45;12.43
50105;BME280;47690;39.202;-77.198;2022-12-07T11:43:36;100672.28;;;40.73;12.34
50105;BME280;47690;39.202;-77.198;2022-12-07T11:46:10;100672.88;;;40.75;12.38
50105;BME280;47690;39.202;-77.198;2022-12-07T11:51:23;100678.25;;;40.36;12.51
50105;BME280;47690;39.202;-77.198;2022-12-07T11:54:14;100673.41;;;40.45;12.89
50105;BME280;47690;39.202;-77.198;2022-12-07T11:56:48;100672.00;;;40.22;12.65
50105;BME280;47690;39.202;-77.198;2022-12-07T11:59:32;100662.03;;;40.36;12.96
50105;BME280;47690;39.202;-77.198;2022-12-07T12:02:16;100652.88;;;40.43;12.98
50105;BME280;47690;39.202;-77.198;2022-12-07T12:05:19;100630.88;;;40.40;12.89
50105;BME280;47690;39.202;-77.198;2022-12-07T12:08:28;100613.22;;;40.44;12.80
50105;BME280;47690;39.202;-77.198;2022-12-07T12:17:09;100610.41;;;41.10;12.56
50105;BME280;47690;39.202;-77.198;2022-12-07T12:22:42;100630.03;;;40.99;11.94
50105;BME280;47690;39.202;-77.198;2022-12-07T12:25:37;100631.63;;;41.06;12.19
50105;BME280;47690;39.202;-77.198;2022-12-07T12:28:29;100662.84;;;40.36;12.93
50105;BME280;47690;39.202;-77.198;2022-12-07T12:31:14;100714.97;;;40.17;12.87
50105;BME280;47690;39.202;-77.198;2022-12-07T12:33:54;100706.25;;;39.94;13.02
50105;BME280;47690;39.202;-77.198;2022-12-07T12:46:54;100739.44;;;40.01;12.89
50105;BME280;47690;39.202;-77.198;2022-12-07T12:51:57;100735.22;;;40.66;12.72
50105;BME280;47690;39.202;-77.198;2022-12-07T12:54:31;100736.50;;;41.23;12.49
50105;BME280;47690;39.202;-77.198;2022-12-07T13:00:00;100719.22;;;40.72;12.53
50105;BME280;47690;39.202;-77.198;2022-12-07T13:02:58;100709.06;;;40.67;13.10
50105;BME280;47690;39.202;-77.198;2022-12-07T13:05:29;100726.13;;;40.34;12.94
50105;BME280;47690;39.202;-77.198;2022-12-07T13:08:12;100716.81;;;40.23;13.01
50105;BME280;47690;39.202;-77.198;2022-12-07T13:10:47;100712.00;;;40.52;12.89
50105;BME280;47690;39.202;-77.198;2022-12-07T13:15:52;100707.56;;;40.85;12.49
50105;BME280;47690;39.202;-77.198;2022-12-07T13:26:21;100674.59;;;40.69;12.73
50105;BME280;47690;39.202;-77.198;2022-12-07T13:29:19;100679.44;;;41.06;12.83
50105;BME280;47690;39.202;-77.198;2022-12-07T13:31:54;100707.38;;;41.32;12.15
50105;BME280;47690;39.202;-77.198;2022-12-07T13:39:52;100700.72;;;41.60;12.01
50105;BME280;47690;39.202;-77.198;2022-12-07T13:45:00;100683.22;;;40.98;12.42
50105;BME280;47690;39.202;-77.198;2022-12-07T13:47:39;100679.53;;;40.86;12.76
50105;BME280;47690;39.202;-77.198;2022-12-07T13:50:28;100681.81;;;41.21;12.60
50105;BME280;47690;39.202;-77.198;2022-12-07T13:52:59;100683.84;;;40.93;13.01
50105;BME280;47690;39.202;-77.198;2022-12-07T13:55:29;100684.50;;;40.89;12.55
50105;BME280;47690;39.202;-77.198;2022-12-07T13:57:59;100682.47;;;40.84;12.81
50105;BME280;47690;39.202;-77.198;2022-12-07T14:00:29;100672.66;;;40.90;13.08
50105;BME280;47690;39.202;-77.198;2022-12-07T14:05:43;100669.91;;;41.35;12.51
50105;BME280;47690;39.202;-77.198;2022-12-07T14:13:33;100676.97;;;41.36;12.89
50105;BME280;47690;39.202;-77.198;2022-12-07T14:16:28;100679.69;;;41.36;12.73
50105;BME280;47690;39.202;-77.198;2022-12-07T14:18:58;100677.81;;;41.37;12.21
50105;BME280;47690;39.202;-77.198;2022-12-07T14:21:30;100684.97;;;41.24;12.53
50105;BME280;47690;39.202;-77.198;2022-12-07T14:26:49;100681.84;;;42.11;12.41
50105;BME280;47690;39.202;-77.198;2022-12-07T14:29:29;100665.47;;;43.65;11.28
50105;BME280;47690;39.202;-77.198;2022-12-07T14:32:20;100682.88;;;42.84;11.79
50105;BME280;47690;39.202;-77.198;2022-12-07T14:34:57;100706.56;;;42.33;12.20
50105;BME280;47690;39.202;-77.198;2022-12-07T14:37:29;100699.88;;;42.17;12.00
50105;BME280;47690;39.202;-77.198;2022-12-07T14:39:58;100701.16;;;42.08;12.19
50105;BME280;47690;39.202;-77.198;2022-12-07T14:42:30;100706.00;;;42.05;11.91
50105;BME280;47690;39.202;-77.198;2022-12-07T14:45:00;100707.25;;;42.03;12.34
50105;BME280;47690;39.202;-77.198;2022-12-07T14:47:29;100699.94;;;42.10;12.15
50105;BME280;47690;39.202;-77.198;2022-12-07T14:50:20;100706.81;;;42.31;12.13
50105;BME280;47690;39.202;-77.198;2022-12-07T14:53:00;100688.00;;;42.37;12.41
50105;BME280;47690;39.202;-77.198;2022-12-07T14:55:52;100687.19;;;42.36;11.99
50105;BME280;47690;39.202;-77.198;2022-12-07T14:58:22;100692.91;;;42.28;12.27
50105;BME280;47690;39.202;-77.198;2022-12-07T15:00:51;100695.34;;;41.85;12.44
50105;BME280;47690;39.202;-77.198;2022-12-07T15:03:21;100701.13;;;41.63;12.67
50105;BME280;47690;39.202;-77.198;2022-12-07T15:05:49;100701.25;;;42.01;12.52
50105;BME280;47690;39.202;-77.198;2022-12-07T15:08:20;100716.56;;;41.56;13.05
50105;BME280;47690;39.202;-77.198;2022-12-07T15:10:49;100715.00;;;41.42;12.93
50105;BME280;47690;39.202;-77.198;2022-12-07T15:13:19;100717.09;;;41.97;12.56